createdAt,value
2023-05-09T10:07:37.050Z,100547.78
2023-05-09T10:09:41.061Z,100543.97
2023-05-09T10:11:44.516Z,100539.84
2023-05-09T10:13:48.002Z,100537.56
2023-05-09T10:15:53.854Z,100535.66
2023-05-09T10:17:59.457Z,100536.03
2023-05-09T10:20:05.653Z,100538.72
2023-05-09T10:22:13.409Z,100533.13
2023-05-09T10:24:22.055Z,100541.31
2023-05-09T10:26:29.109Z,100542.66
2023-05-09T10:28:33.876Z,100542.81
2023-05-09T10:30:42.244Z,100539.44
2023-05-09T10:32:53.461Z,100540.81
2023-05-09T10:35:07.046Z,100535.44
2023-05-09T10:37:11.216Z,100547.16
2023-05-09T10:39:15.510Z,100542.78
2023-05-09T10:41:22.162Z,100536.47
2023-05-09T10:43:25.994Z,100542.25
2023-05-09T10:45:30.042Z,100530.22
2023-05-09T10:47:33.928Z,100536.63
2023-05-09T10:49:37.979Z,100538.53
2023-05-09T10:51:42.085Z,100529.00
2023-05-09T10:53:48.098Z,100531.41
2023-05-09T10:55:57.199Z,100522.50
2023-05-09T10:58:19.915Z,100522.66
2023-05-09T11:00:26.585Z,100529.28
2023-05-09T11:02:32.673Z,100518.59
2023-05-09T11:04:36.250Z,100521.75
2023-05-09T11:06:51.561Z,100520.59
2023-05-09T11:08:56.286Z,100514.41
2023-05-09T11:11:01.128Z,100512.31
2023-05-09T11:13:06.240Z,100508.81
2023-05-09T11:15:11.253Z,100513.19
2023-05-09T11:17:16.612Z,100504.56
2023-05-09T11:19:35.702Z,100498.06
2023-05-09T11:21:39.471Z,100493.06
2023-05-09T11:23:43.273Z,100494.91
2023-05-09T11:25:54.078Z,100494.25
2023-05-09T11:28:01.728Z,100492.91
2023-05-09T11:30:09.178Z,100484.84
2023-05-09T11:32:16.495Z,100491.53
2023-05-09T11:34:21.860Z,100488.66
2023-05-09T11:36:32.307Z,100497.34
2023-05-09T11:38:43.084Z,100490.16
2023-05-09T11:40:46.968Z,100486.47
2023-05-09T11:42:55.420Z,100488.78
2023-05-09T11:45:01.000Z,100473.63
2023-05-09T11:47:06.342Z,100477.28
2023-05-09T11:49:11.986Z,100475.75
2023-05-09T11:51:19.529Z,100470.53
2023-05-09T11:53:23.368Z,100481.44
2023-05-09T11:55:30.269Z,100479.97
2023-05-09T11:57:34.120Z,100483.28
2023-05-09T11:59:38.419Z,100479.09
2023-05-09T12:01:42.933Z,100477.13
2023-05-09T12:03:48.460Z,100476.25
2023-05-09T12:05:52.490Z,100476.44
2023-05-09T12:07:57.149Z,100476.59
2023-05-09T12:10:02.857Z,100477.13
2023-05-09T12:12:12.722Z,100481.16
2023-05-09T12:14:28.505Z,100484.31
2023-05-09T12:16:32.220Z,100480.59
2023-05-09T12:18:36.498Z,100476.72
2023-05-09T12:20:50.644Z,100479.50
2023-05-09T12:22:56.143Z,100478.22
2023-05-09T12:25:03.779Z,100471.47
2023-05-09T12:27:08.173Z,100471.09
2023-05-09T12:29:12.858Z,100479.78
2023-05-09T12:31:16.474Z,100469.38
2023-05-09T12:33:21.472Z,100465.72
2023-05-09T12:35:26.221Z,100469.44
2023-05-09T12:37:33.906Z,100468.13
2023-05-09T12:39:37.593Z,100468.13
2023-05-09T12:41:57.475Z,100461.94
2023-05-09T12:44:05.833Z,100464.81
2023-05-09T12:46:09.695Z,100461.66
2023-05-09T12:48:13.804Z,100465.50
2023-05-09T12:50:17.563Z,100463.31
2023-05-09T12:52:21.877Z,100468.81
2023-05-09T12:54:28.819Z,100465.81
2023-05-09T12:56:35.841Z,100460.44
2023-05-09T12:58:39.785Z,100463.09
2023-05-09T13:00:44.942Z,100466.34
2023-05-09T13:02:54.023Z,100464.75
2023-05-09T13:05:11.232Z,100460.81
2023-05-09T13:07:15.020Z,100465.88
2023-05-09T13:09:19.654Z,100471.94
2023-05-09T13:11:25.998Z,100468.84
2023-05-09T13:13:30.481Z,100465.59
2023-05-09T13:15:35.365Z,100471.72
2023-05-09T13:17:39.891Z,100465.84
2023-05-09T13:19:43.739Z,100469.50
2023-05-09T13:21:47.650Z,100471.81
2023-05-09T13:23:52.345Z,100463.78
2023-05-09T13:25:56.023Z,100474.00
2023-05-09T13:28:01.974Z,100466.47
2023-05-09T13:30:08.361Z,100464.25
2023-05-09T13:32:12.496Z,100460.56
2023-05-09T13:34:17.076Z,100456.88
2023-05-09T13:36:21.051Z,100465.63
2023-05-09T13:38:25.818Z,100463.03
2023-05-09T13:40:29.978Z,100462.16
2023-05-09T13:42:35.783Z,100463.69
2023-05-09T13:44:42.159Z,100471.66
2023-05-09T13:46:47.381Z,100463.22
2023-05-09T13:48:51.235Z,100459.31
2023-05-09T13:50:57.895Z,100455.56
2023-05-09T13:53:02.161Z,100464.38
2023-05-09T13:55:06.385Z,100460.06
2023-05-09T13:57:10.220Z,100455.63
2023-05-09T13:59:14.465Z,100456.28
2023-05-09T14:01:19.648Z,100455.63
2023-05-09T14:03:27.249Z,100450.94
2023-05-09T14:05:32.705Z,100446.88
2023-05-09T14:07:36.796Z,100450.88
2023-05-09T14:09:40.717Z,100452.88
2023-05-09T14:11:44.629Z,100448.50
2023-05-09T14:13:48.426Z,100443.00
2023-05-09T14:15:53.175Z,100435.50
2023-05-09T14:17:58.537Z,100451.25
2023-05-09T14:20:02.810Z,100458.75
2023-05-09T14:22:06.539Z,100462.69
2023-05-09T14:24:11.757Z,100471.72
2023-05-09T14:26:16.874Z,100469.97
2023-05-09T14:28:20.473Z,100474.91
2023-05-09T14:30:25.888Z,100484.16
2023-05-09T14:32:29.983Z,100495.38
2023-05-09T14:34:36.132Z,100495.47
2023-05-09T14:36:40.097Z,100497.91
2023-05-09T14:38:44.524Z,100506.81
2023-05-09T14:40:48.234Z,100511.56
2023-05-09T14:42:52.219Z,100518.59
2023-05-09T14:44:56.224Z,100508.19
2023-05-09T14:47:02.504Z,100513.25
2023-05-09T14:49:07.055Z,100508.63
2023-05-09T14:51:12.622Z,100512.28
2023-05-09T14:53:16.716Z,100509.34
2023-05-09T14:55:23.154Z,100513.53
2023-05-09T14:57:27.304Z,100513.81
2023-05-09T14:59:33.610Z,100512.69
2023-05-09T15:01:41.104Z,100504.56
2023-05-09T15:03:45.248Z,100501.19
2023-05-09T15:05:52.852Z,100501.19
2023-05-09T15:07:58.400Z,100499.75
2023-05-09T15:10:05.538Z,100503.00
2023-05-09T15:12:11.449Z,100497.78
2023-05-09T15:14:21.092Z,100495.81
2023-05-09T15:16:26.962Z,100501.16
2023-05-09T15:18:31.944Z,100508.53
2023-05-09T15:20:36.159Z,100502.28
2023-05-09T15:22:40.270Z,100501.72
2023-05-09T15:24:46.012Z,100505.03
2023-05-09T15:26:52.883Z,100492.34
2023-05-09T15:28:57.422Z,100492.34
2023-05-09T15:31:02.754Z,100485.59
2023-05-09T15:33:09.438Z,100487.56
2023-05-09T15:35:14.510Z,100489.81
2023-05-09T15:37:22.766Z,100487.44
2023-05-09T15:39:27.621Z,100489.03
2023-05-09T15:41:34.468Z,100481.56
2023-05-09T15:43:38.767Z,100480.47
2023-05-09T15:45:46.012Z,100471.72
2023-05-09T15:47:49.790Z,100485.09
2023-05-09T15:49:54.678Z,100475.13
2023-05-09T15:52:00.561Z,100475.81
2023-05-09T15:54:05.422Z,100482.84
2023-05-09T15:56:10.952Z,100468.19
2023-05-09T15:58:16.833Z,100474.66
2023-05-09T16:00:20.962Z,100465.59
2023-05-09T16:02:26.089Z,100461.91
2023-05-09T16:04:31.164Z,100456.53
2023-05-09T16:06:34.432Z,100449.44
2023-05-09T16:08:38.194Z,100456.72
2023-05-09T16:10:42.266Z,100460.78
2023-05-09T16:12:47.213Z,100456.13
2023-05-09T16:14:52.861Z,100456.41
2023-05-09T16:16:56.657Z,100457.88
2023-05-09T16:19:00.456Z,100447.22
2023-05-09T16:21:04.556Z,100456.94
2023-05-09T16:23:08.469Z,100452.63
2023-05-09T16:25:14.124Z,100460.56
2023-05-09T16:27:18.516Z,100458.63
2023-05-09T16:29:23.049Z,100458.22
2023-05-09T16:31:28.472Z,100465.97
2023-05-09T16:33:33.850Z,100468.38
2023-05-09T16:35:37.518Z,100473.31
2023-05-09T16:37:41.333Z,100475.84
2023-05-09T16:39:45.738Z,100495.16
2023-05-09T16:41:49.332Z,100510.59
2023-05-09T16:43:53.231Z,100506.41
2023-05-09T16:45:57.360Z,100506.78
2023-05-09T16:48:02.737Z,100512.66
2023-05-09T16:50:10.959Z,100513.75
2023-05-09T16:52:15.742Z,100519.88
2023-05-09T16:54:19.822Z,100524.09
2023-05-09T16:56:24.369Z,100520.28
2023-05-09T16:58:28.212Z,100519.84
2023-05-09T17:00:32.382Z,100510.66
2023-05-09T17:02:37.390Z,100514.44
2023-05-09T17:04:43.802Z,100512.03
2023-05-09T17:06:48.099Z,100513.28
2023-05-09T17:08:51.972Z,100517.63
2023-05-09T17:10:56.604Z,100513.97
2023-05-09T17:13:00.503Z,100512.72
2023-05-09T17:15:04.456Z,100503.63
2023-05-09T17:17:08.312Z,100513.88
2023-05-09T17:19:12.211Z,100517.16
2023-05-09T17:21:17.792Z,100515.91
2023-05-09T17:23:21.689Z,100514.94
2023-05-09T17:25:25.779Z,100513.97
2023-05-09T17:27:29.630Z,100511.16
2023-05-09T17:29:33.504Z,100512.59
2023-05-09T17:31:37.353Z,100507.78
2023-05-09T17:33:42.038Z,100504.59
2023-05-09T17:35:47.276Z,100510.38
2023-05-09T17:37:52.610Z,100508.97
2023-05-09T17:39:56.049Z,100508.56
2023-05-09T17:41:59.812Z,100499.16
2023-05-09T17:44:03.700Z,100497.91
2023-05-09T17:46:08.521Z,100497.06
2023-05-09T17:48:11.709Z,100501.16
2023-05-09T17:50:17.330Z,100505.97
2023-05-09T17:52:22.109Z,100496.53
2023-05-09T17:54:28.889Z,100503.25
2023-05-09T17:56:33.498Z,100493.28
2023-05-09T17:58:37.577Z,100497.06
2023-05-09T18:00:42.001Z,100492.16
2023-05-09T18:02:46.601Z,100492.84
2023-05-09T18:04:50.931Z,100498.22
2023-05-09T18:06:57.282Z,100490.75
2023-05-09T18:09:01.084Z,100491.59
2023-05-09T18:11:06.049Z,100494.88
2023-05-09T18:13:10.221Z,100493.84
2023-05-09T18:15:15.791Z,100497.25
2023-05-09T18:17:19.338Z,100495.97
2023-05-09T18:19:23.395Z,100494.72
2023-05-09T18:21:27.401Z,100496.97
2023-05-09T18:23:31.328Z,100504.41
2023-05-09T18:25:35.382Z,100507.38
2023-05-09T18:27:40.388Z,100503.16
2023-05-09T18:29:47.232Z,100515.38
2023-05-09T18:31:50.988Z,100516.63
2023-05-09T18:33:54.758Z,100512.69
2023-05-09T18:35:58.536Z,100510.28
2023-05-09T18:38:02.378Z,100508.72
2023-05-09T18:40:07.360Z,100514.06
2023-05-09T18:42:10.542Z,100518.44
2023-05-09T18:44:15.572Z,100519.31
2023-05-09T18:46:21.859Z,100524.81
2023-05-09T18:48:28.614Z,100520.88
2023-05-09T18:50:33.683Z,100520.59
2023-05-09T18:52:38.895Z,100522.00
2023-05-09T18:54:50.305Z,100516.50
2023-05-09T18:56:53.984Z,100521.41
2023-05-09T18:58:57.999Z,100519.16
2023-05-09T19:01:04.412Z,100519.00
2023-05-09T19:03:08.556Z,100521.25
2023-05-09T19:05:12.869Z,100523.31
2023-05-09T19:07:18.720Z,100525.03
2023-05-09T19:09:24.213Z,100526.72
2023-05-09T19:11:30.085Z,100530.06
2023-05-09T19:13:38.836Z,100530.22
2023-05-09T19:15:43.701Z,100539.19
2023-05-09T19:17:48.778Z,100538.22
2023-05-09T19:19:52.674Z,100536.53
2023-05-09T19:21:56.794Z,100545.78
2023-05-09T19:24:01.182Z,100544.66
2023-05-09T19:26:05.555Z,100541.81
2023-05-09T19:28:09.246Z,100555.97
2023-05-09T19:30:16.490Z,100552.16
2023-05-09T19:32:20.482Z,100551.94
2023-05-09T19:34:27.334Z,100558.06
2023-05-09T19:36:31.672Z,100557.75
2023-05-09T19:38:35.443Z,100561.09
2023-05-09T19:40:41.640Z,100555.59
2023-05-09T19:42:45.392Z,100560.00
2023-05-09T19:44:49.633Z,100558.84
2023-05-09T19:46:53.456Z,100563.84
2023-05-09T19:48:57.210Z,100563.38
2023-05-09T19:51:03.469Z,100563.78
2023-05-09T19:53:07.119Z,100565.25
2023-05-09T19:55:11.844Z,100563.81
2023-05-09T19:57:16.612Z,100562.63
2023-05-09T19:59:20.798Z,100567.50
2023-05-09T20:01:25.418Z,100561.59
2023-05-09T20:03:29.624Z,100568.28
2023-05-09T20:05:33.538Z,100563.31
2023-05-09T20:07:38.747Z,100569.03
2023-05-09T20:09:42.808Z,100572.91
2023-05-09T20:11:46.449Z,100579.47
2023-05-09T20:13:50.195Z,100569.16
2023-05-09T20:15:54.033Z,100569.44
2023-05-09T20:17:58.765Z,100568.78
2023-05-09T20:20:04.399Z,100575.34
2023-05-09T20:22:09.620Z,100572.94
2023-05-09T20:24:16.164Z,100576.81
2023-05-09T20:26:20.497Z,100579.72
2023-05-09T20:28:24.368Z,100587.09
2023-05-09T20:30:27.890Z,100588.19
2023-05-09T20:32:41.657Z,100587.59
2023-05-09T20:34:46.194Z,100582.63
2023-05-09T20:36:53.873Z,100588.22
2023-05-09T20:38:58.157Z,100591.13
2023-05-09T20:41:05.991Z,100587.72
2023-05-09T20:43:10.864Z,100586.53
2023-05-09T20:45:16.165Z,100600.06
2023-05-09T20:47:19.969Z,100595.97
2023-05-09T20:49:25.130Z,100601.63
2023-05-09T20:51:31.378Z,100595.84
2023-05-09T20:53:38.840Z,100597.75
2023-05-09T20:55:42.529Z,100594.41
2023-05-09T20:57:47.738Z,100592.81
2023-05-09T20:59:51.487Z,100595.59
2023-05-09T21:01:57.163Z,100594.97
2023-05-09T21:04:01.593Z,100586.38
2023-05-09T21:06:08.946Z,100591.94
2023-05-09T21:08:13.170Z,100586.00
2023-05-09T21:10:18.649Z,100589.66
2023-05-09T21:12:24.260Z,100588.91
2023-05-09T21:14:32.688Z,100582.88
2023-05-09T21:16:37.460Z,100583.97
2023-05-09T21:18:41.618Z,100583.97
2023-05-09T21:20:46.861Z,100584.19
2023-05-09T21:22:50.706Z,100587.94
2023-05-09T21:24:54.687Z,100582.00
2023-05-09T21:27:00.005Z,100579.47
2023-05-09T21:29:04.086Z,100578.72
2023-05-09T21:31:11.451Z,100580.69
2023-05-09T21:33:16.016Z,100574.63
2023-05-09T21:35:19.864Z,100578.25
2023-05-09T21:37:24.854Z,100579.47
2023-05-09T21:39:28.769Z,100573.63
2023-05-09T21:41:32.301Z,100575.56
2023-05-09T21:43:36.369Z,100575.78
2023-05-09T21:45:39.921Z,100576.03
2023-05-09T21:47:45.059Z,100576.16
2023-05-09T21:49:49.281Z,100575.28
2023-05-09T21:51:53.586Z,100573.59
2023-05-09T21:53:57.494Z,100573.69
2023-05-09T21:56:03.539Z,100569.25
2023-05-09T21:58:12.620Z,100567.56
2023-05-09T22:00:18.198Z,100563.94
2023-05-09T22:02:23.109Z,100560.53
2023-05-09T22:04:28.531Z,100559.72
2023-05-09T22:06:32.656Z,100558.84
2023-05-09T22:08:37.898Z,100559.81
2023-05-09T22:10:43.763Z,100551.97
2023-05-09T22:12:49.549Z,100553.78
2023-05-09T22:14:56.709Z,100551.00
2023-05-09T22:17:01.940Z,100554.63
2023-05-09T22:19:11.354Z,100555.47
2023-05-09T22:21:16.869Z,100551.13
2023-05-09T22:23:21.590Z,100550.41
2023-05-09T22:25:25.307Z,100548.66
2023-05-09T22:27:30.109Z,100551.44
2023-05-09T22:29:34.756Z,100552.28
2023-05-09T22:31:39.465Z,100556.63
2023-05-09T22:33:44.171Z,100558.44
2023-05-09T22:35:48.773Z,100555.88
2023-05-09T22:37:55.141Z,100555.06
2023-05-09T22:40:01.100Z,100554.94
2023-05-09T22:42:04.961Z,100544.31
2023-05-09T22:44:08.795Z,100554.72
2023-05-09T22:46:13.381Z,100554.72
2023-05-09T22:48:17.558Z,100555.72
2023-05-09T22:50:22.001Z,100551.31
2023-05-09T22:52:26.494Z,100546.97
2023-05-09T22:54:31.836Z,100557.59
2023-05-09T22:56:35.814Z,100552.28
2023-05-09T22:58:39.949Z,100557.59
2023-05-09T23:00:43.674Z,100548.78
2023-05-09T23:02:47.483Z,100555.88
2023-05-09T23:04:51.405Z,100550.56
2023-05-09T23:06:56.893Z,100559.28
2023-05-09T23:09:02.262Z,100555.78
2023-05-09T23:11:07.781Z,100547.75
2023-05-09T23:13:13.146Z,100552.06
2023-05-09T23:15:17.474Z,100549.19
2023-05-09T23:17:22.394Z,100538.56
2023-05-09T23:19:25.705Z,100544.97
2023-05-09T23:21:29.461Z,100547.75
2023-05-09T23:23:33.443Z,100541.56
2023-05-09T23:25:36.868Z,100536.25
2023-05-09T23:27:44.800Z,100535.50
2023-05-09T23:29:48.892Z,100539.13
2023-05-09T23:31:52.568Z,100536.69
2023-05-09T23:33:56.193Z,100534.16
2023-05-09T23:36:00.389Z,100534.38
2023-05-09T23:38:05.297Z,100527.38
2023-05-09T23:40:10.318Z,100534.38
2023-05-09T23:42:13.932Z,100523.97
2023-05-09T23:44:18.973Z,100524.22
2023-05-09T23:46:22.731Z,100526.13
2023-05-09T23:48:26.904Z,100524.66
2023-05-09T23:50:31.908Z,100528.31
2023-05-09T23:52:35.365Z,100520.44
2023-05-09T23:54:40.714Z,100521.41
2023-05-09T23:56:44.463Z,100516.81
2023-05-09T23:58:47.989Z,100523.00
